createdAt,value
2018-11-25T00:02:26.651Z,34.70
2018-11-25T00:04:55.072Z,33.70
2018-11-25T00:07:23.481Z,34.63
2018-11-25T00:09:52.049Z,34.27
2018-11-25T00:12:20.530Z,33.30
2018-11-25T00:14:48.910Z,32.17
2018-11-25T00:17:17.286Z,34.13
2018-11-25T00:19:45.689Z,34.17
2018-11-25T00:22:14.291Z,33.50
2018-11-25T00:24:42.975Z,34.93
2018-11-25T00:27:11.643Z,32.90
2018-11-25T00:29:40.335Z,35.43
2018-11-25T00:32:08.803Z,34.33
2018-11-25T00:34:37.191Z,33.93
2018-11-25T00:37:05.583Z,35.23
2018-11-25T00:39:33.959Z,35.03
2018-11-25T00:42:02.435Z,35.47
2018-11-25T00:44:30.837Z,34.87
2018-11-25T00:46:59.211Z,33.40
2018-11-25T00:49:27.586Z,35.40
2018-11-25T00:51:56.225Z,35.53
2018-11-25T00:54:24.882Z,37.40
2018-11-25T00:56:53.358Z,37.53
2018-11-25T00:59:21.959Z,37.13
2018-11-25T01:01:50.664Z,34.23
2018-11-25T01:04:19.130Z,38.37
2018-11-25T01:06:47.551Z,35.77
2018-11-25T01:09:16.135Z,37.20
2018-11-25T01:11:44.599Z,38.47
2018-11-25T01:14:13.006Z,37.07
2018-11-25T01:16:41.383Z,37.20
2018-11-25T01:19:09.971Z,36.10
2018-11-25T01:21:38.464Z,36.90
2018-11-25T01:24:06.840Z,36.17
2018-11-25T01:26:35.206Z,34.67
2018-11-25T01:29:03.614Z,39.23
2018-11-25T01:31:32.203Z,36.30
2018-11-25T01:34:01.423Z,36.77
2018-11-25T01:36:30.028Z,37.93
2018-11-25T01:38:58.718Z,35.77
2018-11-25T01:41:27.215Z,35.57
2018-11-25T01:43:55.811Z,36.37
2018-11-25T01:46:24.487Z,34.93
2018-11-25T01:48:53.073Z,34.37
2018-11-25T02:10:22.723Z,35.30
2018-11-25T02:31:53.063Z,36.83
2018-11-25T02:34:21.451Z,36.43
2018-11-25T02:36:50.036Z,38.43
2018-11-25T02:39:18.501Z,35.67
2018-11-25T02:58:26.575Z,35.43
2018-11-25T03:00:54.971Z,37.07
2018-11-25T03:03:23.344Z,37.47
2018-11-25T03:05:51.717Z,38.67
2018-11-25T03:08:20.132Z,39.10
2018-11-25T03:10:48.513Z,38.50
2018-11-25T03:13:16.889Z,38.20
2018-11-25T03:15:45.289Z,36.40
2018-11-25T03:18:13.659Z,36.87
2018-11-25T03:20:42.086Z,37.10
2018-11-25T03:23:10.555Z,38.60
2018-11-25T03:25:39.002Z,37.70
2018-11-25T03:28:07.377Z,38.63
2018-11-25T03:30:36.043Z,40.73
2018-11-25T03:33:04.836Z,39.27
2018-11-25T03:35:33.230Z,38.60
2018-11-25T03:38:01.608Z,40.87
2018-11-25T03:40:30.001Z,37.77
2018-11-25T03:46:20.303Z,39.17
2018-11-25T03:48:49.012Z,38.63
2018-11-25T03:51:17.474Z,39.67
2018-11-25T03:53:45.859Z,39.47
2018-11-25T03:56:14.258Z,42.13
2018-11-25T03:58:42.634Z,39.77
2018-11-25T04:01:11.019Z,40.60
2018-11-25T04:03:39.398Z,38.43
2018-11-25T04:06:08.014Z,37.70
2018-11-25T04:08:36.699Z,39.67
2018-11-25T04:11:05.421Z,40.23
2018-11-25T04:13:33.808Z,39.40
2018-11-25T04:16:02.192Z,40.07
2018-11-25T04:18:30.800Z,37.23
2018-11-25T04:20:59.308Z,38.87
2018-11-25T04:23:27.704Z,39.47
2018-11-25T04:25:56.107Z,39.43
2018-11-25T04:28:24.716Z,40.07
2018-11-25T04:30:53.183Z,39.40
2018-11-25T04:33:21.582Z,38.67
2018-11-25T04:35:49.964Z,39.70
2018-11-25T04:38:18.544Z,41.13
2018-11-25T04:40:47.031Z,39.13
2018-11-25T04:43:15.411Z,40.07
2018-11-25T04:45:43.792Z,42.00
2018-11-25T04:48:12.393Z,43.70
2018-11-25T04:50:40.887Z,41.40
2018-11-25T04:53:09.284Z,40.33
2018-11-25T04:55:37.680Z,42.77
2018-11-25T04:58:06.073Z,43.37
2018-11-25T05:00:34.439Z,41.97
2018-11-25T05:03:02.825Z,40.97
2018-11-25T05:05:31.228Z,44.10
2018-11-25T05:07:59.824Z,43.17
2018-11-25T05:10:28.348Z,41.23
2018-11-25T05:12:56.768Z,44.43
2018-11-25T05:15:25.146Z,43.00
2018-11-25T05:17:53.526Z,41.70
2018-11-25T05:20:21.903Z,43.80
2018-11-25T05:22:50.283Z,42.13
2018-11-25T05:25:19.392Z,43.10
2018-11-25T05:27:47.859Z,43.80
2018-11-25T05:30:16.645Z,46.67
2018-11-25T05:32:45.050Z,43.43
2018-11-25T05:35:13.945Z,43.27
2018-11-25T05:37:42.556Z,42.80
2018-11-25T05:40:14.207Z,44.40
2018-11-25T05:42:42.639Z,43.77
2018-11-25T05:45:14.491Z,44.10
2018-11-25T05:47:42.900Z,43.90
2018-11-25T05:50:11.743Z,44.27
2018-11-25T05:52:40.125Z,47.13
2018-11-25T05:55:09.719Z,46.07
2018-11-25T05:57:38.199Z,43.50
2018-11-25T06:00:13.804Z,43.17
2018-11-25T06:02:42.172Z,44.00
2018-11-25T06:05:10.780Z,46.57
2018-11-25T06:07:39.346Z,44.63
2018-11-25T06:10:09.260Z,44.03
2018-11-25T06:12:37.680Z,42.60
2018-11-25T06:15:07.422Z,45.43
2018-11-25T06:17:35.803Z,43.10
2018-11-25T06:20:05.989Z,44.60
2018-11-25T06:22:34.395Z,44.67
2018-11-25T06:25:02.782Z,43.73
2018-11-25T06:27:38.092Z,44.43
2018-11-25T06:29:59.552Z,43.07
2018-11-25T06:32:27.943Z,45.20
2018-11-25T06:34:56.523Z,45.80
2018-11-25T06:37:25.235Z,43.47
2018-11-25T06:39:53.911Z,43.63
2018-11-25T06:42:22.475Z,43.77
2018-11-25T06:44:50.871Z,45.17
2018-11-25T06:47:19.251Z,44.33
2018-11-25T06:49:47.839Z,44.97
2018-11-25T06:52:16.318Z,44.83
2018-11-25T06:54:44.699Z,43.67
2018-11-25T06:57:13.070Z,45.30
2018-11-25T06:59:41.458Z,45.47
2018-11-25T07:02:09.834Z,45.17
2018-11-25T07:04:38.230Z,45.13
2018-11-25T07:07:06.611Z,44.53
2018-11-25T07:09:34.987Z,43.83
2018-11-25T07:12:03.358Z,45.23
2018-11-25T07:14:31.759Z,46.37
2018-11-25T07:17:00.132Z,46.37
2018-11-25T07:19:28.508Z,44.27
2018-11-25T07:21:56.905Z,43.73
2018-11-25T07:24:25.270Z,45.97
2018-11-25T07:26:53.660Z,44.93
2018-11-25T07:29:22.054Z,44.47
2018-11-25T07:31:50.475Z,46.87
2018-11-25T07:34:18.846Z,47.17
2018-11-25T07:36:47.250Z,44.60
2018-11-25T07:39:15.638Z,46.33
2018-11-25T07:41:44.094Z,47.27
2018-11-25T07:44:12.477Z,48.73
2018-11-25T07:46:40.896Z,44.97
2018-11-25T07:49:09.281Z,48.13
2018-11-25T07:51:37.725Z,47.63
2018-11-25T07:54:06.359Z,49.10
2018-11-25T07:56:35.282Z,47.07
2018-11-25T07:59:04.011Z,45.67
2018-11-25T08:01:32.467Z,47.97
2018-11-25T08:04:01.138Z,46.70
2018-11-25T08:06:29.644Z,46.73
2018-11-25T08:08:58.033Z,46.20
2018-11-25T08:11:26.414Z,48.00
2018-11-25T08:13:55.142Z,45.97
2018-11-25T08:16:23.535Z,46.07
2018-11-25T08:18:51.931Z,44.20
2018-11-25T08:21:20.339Z,48.93
2018-11-25T08:23:48.850Z,47.47
2018-11-25T08:26:17.221Z,46.00
2018-11-25T08:28:45.689Z,45.63
2018-11-25T08:31:14.143Z,45.77
2018-11-25T08:33:42.530Z,44.33
2018-11-25T08:36:11.850Z,48.30
2018-11-25T08:38:40.275Z,45.83
2018-11-25T08:41:08.683Z,43.40
2018-11-25T08:43:37.344Z,44.60
2018-11-25T08:46:05.901Z,44.53
2018-11-25T08:48:34.516Z,43.87
2018-11-25T08:51:03.360Z,44.10
2018-11-25T08:53:32.072Z,42.90
2018-11-25T08:56:01.058Z,44.80
2018-11-25T08:58:29.511Z,44.20
2018-11-25T09:01:02.976Z,43.83
2018-11-25T09:03:31.382Z,46.87
2018-11-25T09:05:59.851Z,43.77
2018-11-25T09:08:28.452Z,46.93
2018-11-25T09:11:02.220Z,46.03
2018-11-25T09:13:30.763Z,44.50
2018-11-25T09:15:59.076Z,46.20
2018-11-25T09:18:27.566Z,45.20
2018-11-25T09:20:55.971Z,43.73
2018-11-25T09:23:24.357Z,45.20
2018-11-25T09:25:53.015Z,43.47
2018-11-25T09:28:21.470Z,45.03
2018-11-25T09:30:50.093Z,45.07
2018-11-25T09:33:18.578Z,43.93
2018-11-25T09:35:47.207Z,43.73
2018-11-25T09:38:16.484Z,43.40
2018-11-25T09:40:44.915Z,46.13
2018-11-25T09:43:13.276Z,47.07
2018-11-25T09:45:41.671Z,42.27
2018-11-25T09:48:10.277Z,47.07
2018-11-25T09:50:38.968Z,43.13
2018-11-25T09:53:07.430Z,45.60
2018-11-25T09:55:35.839Z,45.60
2018-11-25T09:58:04.226Z,44.53
2018-11-25T10:00:33.225Z,45.67
2018-11-25T10:03:02.023Z,45.33
2018-11-25T10:05:30.403Z,44.77
2018-11-25T10:07:58.853Z,45.40
2018-11-25T10:10:27.275Z,42.97
2018-11-25T10:12:56.165Z,43.30
2018-11-25T10:15:25.123Z,44.33
2018-11-25T10:17:59.435Z,42.07
2018-11-25T10:20:23.279Z,42.93
2018-11-25T10:22:51.879Z,41.60
2018-11-25T10:25:20.342Z,44.30
2018-11-25T10:27:48.940Z,43.10
2018-11-25T10:30:17.976Z,41.00
2018-11-25T10:32:47.002Z,46.17
2018-11-25T10:35:16.197Z,44.23
2018-11-25T10:37:45.021Z,44.37
2018-11-25T10:40:13.977Z,45.07
2018-11-25T10:42:42.372Z,44.77
2018-11-25T10:45:11.416Z,45.10
2018-11-25T10:47:40.159Z,43.20
2018-11-25T10:50:09.452Z,48.37
2018-11-25T10:52:37.843Z,47.40
2018-11-25T10:55:07.113Z,50.67
2018-11-25T10:57:35.564Z,50.07
2018-11-25T11:00:19.232Z,51.43
2018-11-25T11:02:47.775Z,53.17
2018-11-25T11:05:21.828Z,52.27
2018-11-25T11:07:50.223Z,52.33
2018-11-25T11:10:18.860Z,52.03
2018-11-25T11:12:47.693Z,49.73
2018-11-25T11:15:16.647Z,49.30
2018-11-25T11:17:45.107Z,50.27
2018-11-25T11:20:13.512Z,49.00
2018-11-25T11:22:41.929Z,49.93
2018-11-25T11:25:10.522Z,49.33
2018-11-25T11:27:39.236Z,47.60
2018-11-25T11:30:08.447Z,49.27
2018-11-25T11:32:36.830Z,50.60
2018-11-25T11:35:06.708Z,50.67
2018-11-25T11:37:35.353Z,46.53
2018-11-25T11:40:04.947Z,47.93
2018-11-25T11:42:33.351Z,48.83
2018-11-25T11:45:01.792Z,46.37
2018-11-25T11:47:30.434Z,50.43
2018-11-25T11:49:58.925Z,48.67
2018-11-25T11:52:27.292Z,51.07
2018-11-25T11:54:56.407Z,47.83
2018-11-25T11:57:24.835Z,45.70
2018-11-25T11:59:53.459Z,43.13
2018-11-25T12:02:21.963Z,46.47
2018-11-25T12:04:50.378Z,44.17
2018-11-25T12:07:18.992Z,42.70
2018-11-25T12:09:47.428Z,43.57
2018-11-25T12:12:20.844Z,46.60
2018-11-25T12:14:50.308Z,43.50
2018-11-25T12:17:17.630Z,41.10
2018-11-25T12:19:46.068Z,50.33
2018-11-25T12:22:14.548Z,42.53
2018-11-25T12:24:42.958Z,47.33
2018-11-25T12:27:11.355Z,39.70
2018-11-25T12:29:39.767Z,39.47
2018-11-25T12:32:08.456Z,37.83
2018-11-25T12:34:36.967Z,40.03
2018-11-25T12:37:05.355Z,40.50
2018-11-25T12:39:33.807Z,42.73
2018-11-25T12:42:02.505Z,40.47
2018-11-25T12:44:30.971Z,41.50
2018-11-25T12:46:59.372Z,40.87
2018-11-25T12:49:27.813Z,41.07
2018-11-25T12:51:56.973Z,41.00
2018-11-25T12:54:25.391Z,40.37
2018-11-25T12:56:54.324Z,36.90
2018-11-25T12:59:22.935Z,36.87
2018-11-25T13:01:51.493Z,40.27
2018-11-25T13:04:19.979Z,36.50
2018-11-25T13:06:48.429Z,36.33
2018-11-25T13:09:17.036Z,35.97
2018-11-25T13:11:52.141Z,37.37
2018-11-25T13:14:13.928Z,37.23
2018-11-25T13:16:42.327Z,36.63
2018-11-25T13:19:11.464Z,36.70
2018-11-25T13:21:39.945Z,35.50
2018-11-25T13:24:08.602Z,35.70
2018-11-25T13:26:37.027Z,36.20
2018-11-25T13:29:05.804Z,35.93
2018-11-25T13:31:39.323Z,36.27
2018-11-25T13:34:07.732Z,34.80
2018-11-25T13:36:36.160Z,33.63
2018-11-25T13:39:07.997Z,35.93
2018-11-25T13:41:36.591Z,34.23
2018-11-25T13:44:05.099Z,33.93
2018-11-25T13:46:33.523Z,33.83
2018-11-25T13:49:01.942Z,33.83
2018-11-25T13:51:30.624Z,32.63
2018-11-25T13:53:59.615Z,32.47
2018-11-25T13:56:28.086Z,33.13
2018-11-25T13:58:56.460Z,33.90
2018-11-25T14:01:24.850Z,33.23
2018-11-25T14:03:53.367Z,32.77
2018-11-25T14:06:21.870Z,29.73
2018-11-25T14:08:51.351Z,31.00
2018-11-25T14:11:20.053Z,29.43
2018-11-25T14:13:48.636Z,30.30
2018-11-25T14:16:19.265Z,30.67
2018-11-25T14:18:48.288Z,28.67
2018-11-25T14:33:25.161Z,30.67
2018-11-25T14:35:54.466Z,32.47
2018-11-25T14:38:22.880Z,32.70
2018-11-25T14:40:51.280Z,34.03
2018-11-25T14:43:19.663Z,33.67
2018-11-25T14:45:48.275Z,35.27
2018-11-25T14:48:16.982Z,31.43
2018-11-25T14:50:45.470Z,32.60
2018-11-25T14:53:13.857Z,33.57
2018-11-25T14:55:42.251Z,33.20
2018-11-25T14:58:10.647Z,32.73
2018-11-25T15:00:40.020Z,33.97
2018-11-25T15:03:08.774Z,32.30
2018-11-25T15:05:39.009Z,32.73
2018-11-25T15:08:07.891Z,32.37
2018-11-25T15:10:36.306Z,32.63
2018-11-25T15:13:05.125Z,31.93
2018-11-25T15:15:33.523Z,32.50
2018-11-25T15:18:01.923Z,33.40
2018-11-25T15:20:30.732Z,31.83
2018-11-25T15:23:00.200Z,33.33
2018-11-25T15:25:31.571Z,34.60
2018-11-25T15:28:00.049Z,33.77
2018-11-25T15:30:28.607Z,33.70
2018-11-25T15:32:57.107Z,32.70
2018-11-25T15:35:25.527Z,32.77
2018-11-25T15:37:54.327Z,32.60
2018-11-25T15:40:23.531Z,33.20
2018-11-25T15:42:52.214Z,30.40
2018-11-25T15:45:21.351Z,31.67
2018-11-25T15:47:50.621Z,30.67
2018-11-25T15:50:21.389Z,31.03
2018-11-25T15:52:49.902Z,28.50
2018-11-25T15:55:18.551Z,29.13
2018-11-25T15:57:47.024Z,30.07
2018-11-25T16:00:16.009Z,30.30
2018-11-25T16:02:44.408Z,29.47
2018-11-25T16:05:14.482Z,28.50
2018-11-25T16:07:42.903Z,28.93
2018-11-25T16:10:12.321Z,30.33
2018-11-25T16:12:42.171Z,29.23
2018-11-25T16:15:11.408Z,28.50
2018-11-25T16:17:39.853Z,29.23
2018-11-25T16:20:09.074Z,27.53
2018-11-25T16:22:37.495Z,28.27
2018-11-25T16:25:13.495Z,25.40
2018-11-25T16:27:42.086Z,26.03
2018-11-25T16:30:11.204Z,28.60
2018-11-25T16:32:39.736Z,27.20
2018-11-25T16:35:08.891Z,26.77
2018-11-25T16:37:37.671Z,25.80
2018-11-25T16:40:07.992Z,24.93
2018-11-25T16:42:36.379Z,24.83
2018-11-25T16:45:07.259Z,26.13
2018-11-25T16:47:35.684Z,24.17
2018-11-25T16:50:05.683Z,23.87
2018-11-25T16:52:34.380Z,22.47
2018-11-25T16:55:03.063Z,26.10
2018-11-25T16:57:31.542Z,24.53
2018-11-25T16:59:59.927Z,25.73
2018-11-25T17:02:28.431Z,26.10
2018-11-25T17:04:57.031Z,25.67
2018-11-25T17:07:25.542Z,26.10
2018-11-25T17:09:53.975Z,28.33
2018-11-25T17:12:22.429Z,27.90
2018-11-25T17:14:50.837Z,26.00
2018-11-25T17:17:19.480Z,27.30
2018-11-25T17:19:47.946Z,25.63
2018-11-25T17:22:16.731Z,24.87
2018-11-25T17:24:44.826Z,24.60
2018-11-25T17:27:27.777Z,25.77
2018-11-25T17:29:56.415Z,26.10
2018-11-25T17:32:24.887Z,25.37
2018-11-25T17:34:53.492Z,25.13
2018-11-25T17:37:21.994Z,27.37
2018-11-25T17:39:50.651Z,24.80
2018-11-25T17:42:19.142Z,24.50
2018-11-25T17:44:47.566Z,24.43
2018-11-25T17:47:16.005Z,25.60
2018-11-25T17:49:44.397Z,25.20
2018-11-25T17:52:12.884Z,26.63
2018-11-25T17:54:41.283Z,24.30
2018-11-25T17:57:09.659Z,25.07
2018-11-25T17:59:38.056Z,25.33
2018-11-25T18:02:06.522Z,24.40
2018-11-25T18:04:35.021Z,25.20
2018-11-25T18:07:03.411Z,23.37
2018-11-25T18:09:31.800Z,24.40
2018-11-25T18:12:00.192Z,26.03
2018-11-25T18:14:28.986Z,26.43
2018-11-25T18:16:57.451Z,29.07
2018-11-25T18:19:25.871Z,28.03
2018-11-25T18:21:58.512Z,31.03
2018-11-25T18:24:27.274Z,32.90
2018-11-25T18:26:55.808Z,29.10
2018-11-25T18:29:24.274Z,26.77
2018-11-25T18:31:52.976Z,26.37
2018-11-25T18:34:21.719Z,25.43
2018-11-25T18:36:50.608Z,25.60
2018-11-25T18:39:19.106Z,25.30
2018-11-25T18:41:52.597Z,24.90
2018-11-25T18:44:21.382Z,25.97
2018-11-25T18:46:49.914Z,23.07
2018-11-25T18:49:18.803Z,23.27
2018-11-25T18:51:47.429Z,24.37
2018-11-25T18:54:15.813Z,24.47
2018-11-25T18:56:44.369Z,25.63
2018-11-25T18:59:12.744Z,22.90
2018-11-25T19:01:42.870Z,24.73
2018-11-25T19:04:11.283Z,22.67
2018-11-25T19:06:39.667Z,24.90
2018-11-25T19:09:08.564Z,21.73
2018-11-25T19:11:37.215Z,23.97
2018-11-25T19:14:05.957Z,23.40
2018-11-25T19:16:34.674Z,23.57
2018-11-25T19:19:03.148Z,22.20
2018-11-25T19:21:31.824Z,22.40
2018-11-25T19:24:00.320Z,23.03
2018-11-25T19:26:28.790Z,22.67
2018-11-25T19:28:57.378Z,23.20
2018-11-25T19:31:25.871Z,23.10
2018-11-25T19:33:54.326Z,24.60
2018-11-25T19:36:22.716Z,24.20
2018-11-25T19:38:51.263Z,24.23
2018-11-25T19:41:19.883Z,25.50
2018-11-25T19:43:48.512Z,26.23
2018-11-25T19:46:17.260Z,25.30
2018-11-25T19:48:45.758Z,24.57
2018-11-25T19:51:17.493Z,24.23
2018-11-25T19:53:43.046Z,24.80
2018-11-25T19:56:11.540Z,25.53
2018-11-25T19:58:39.962Z,25.53
2018-11-25T20:01:08.750Z,22.50
2018-11-25T20:03:37.305Z,24.17
2018-11-25T20:06:05.759Z,23.93
2018-11-25T20:08:34.198Z,24.30
2018-11-25T20:11:02.639Z,24.37
2018-11-25T20:13:31.017Z,23.77
2018-11-25T20:16:05.099Z,24.60
2018-11-25T20:18:33.575Z,26.97
2018-11-25T20:22:11.197Z,26.07
2018-11-25T20:24:39.595Z,23.80
2018-11-25T20:27:13.516Z,25.90
2018-11-25T20:29:41.887Z,24.03
2018-11-25T20:33:16.146Z,26.17
2018-11-25T20:35:44.637Z,26.57
2018-11-25T20:38:18.378Z,25.90
2018-11-25T20:40:46.972Z,26.20
2018-11-25T20:43:15.431Z,27.70
2018-11-25T20:45:49.267Z,26.43
2018-11-25T20:48:17.659Z,27.10
2018-11-25T20:50:46.073Z,26.73
2018-11-25T20:53:20.746Z,26.50
2018-11-25T20:55:48.385Z,26.43
2018-11-25T20:58:16.758Z,27.43
2018-11-25T21:00:45.151Z,25.23
2018-11-25T21:03:13.756Z,26.10
2018-11-25T21:05:42.226Z,28.10
2018-11-25T21:08:12.825Z,27.03
2018-11-25T21:10:41.265Z,27.77
2018-11-25T21:13:09.768Z,29.27
2018-11-25T21:15:38.224Z,28.80
2018-11-25T21:18:06.703Z,29.27
2018-11-25T21:20:35.159Z,27.33
2018-11-25T21:23:03.610Z,28.80
2018-11-25T21:25:32.286Z,28.03
2018-11-25T21:28:00.708Z,26.53
2018-11-25T21:30:29.130Z,27.20
2018-11-25T21:32:57.762Z,28.10
2018-11-25T21:35:26.192Z,26.57
2018-11-25T21:37:55.094Z,24.60
2018-11-25T21:40:25.112Z,26.87
2018-11-25T21:42:53.554Z,26.23
2018-11-25T21:45:22.409Z,25.37
2018-11-25T21:47:50.961Z,24.23
2018-11-25T21:50:20.048Z,23.97
2018-11-25T21:52:48.555Z,24.57
2018-11-25T21:55:17.245Z,24.53
2018-11-25T21:57:45.675Z,24.77
2018-11-25T22:00:15.575Z,24.33
2018-11-25T22:02:44.068Z,23.63
2018-11-25T22:05:13.050Z,22.07
2018-11-25T22:07:41.639Z,20.07
2018-11-25T22:10:11.387Z,21.20
2018-11-25T22:12:40.231Z,19.63
2018-11-25T22:15:09.343Z,18.70
2018-11-25T22:17:37.781Z,17.53
2018-11-25T22:20:07.119Z,17.07
2018-11-25T22:22:35.572Z,15.83
2018-11-25T22:25:05.019Z,14.93
2018-11-25T22:27:33.440Z,15.40
2018-11-25T22:30:01.881Z,13.23
2018-11-25T22:32:30.307Z,13.93
2018-11-25T22:34:58.750Z,13.47
2018-11-25T22:37:27.878Z,13.80
2018-11-25T22:39:56.335Z,11.93
2018-11-25T22:42:24.703Z,13.13
2018-11-25T22:44:53.149Z,12.37
2018-11-25T22:47:21.560Z,12.40
2018-11-25T22:49:49.939Z,13.13
2018-11-25T22:52:18.387Z,11.83
2018-11-25T22:54:46.757Z,11.47
2018-11-25T22:57:15.140Z,11.83
2018-11-25T22:59:43.527Z,11.73
2018-11-25T23:02:11.911Z,11.47
2018-11-25T23:04:45.979Z,10.37
2018-11-25T23:07:14.357Z,10.33
2018-11-25T23:09:42.733Z,10.47
2018-11-25T23:12:11.147Z,10.00
2018-11-25T23:14:39.514Z,10.10
2018-11-25T23:17:07.895Z,10.50
2018-11-25T23:19:36.283Z,10.10
2018-11-25T23:22:04.737Z,10.00
2018-11-25T23:24:33.099Z,9.67
2018-11-25T23:27:01.508Z,10.93
2018-11-25T23:29:30.065Z,9.90
2018-11-25T23:31:58.471Z,11.07
2018-11-25T23:34:26.919Z,10.67
2018-11-25T23:36:55.290Z,10.67
2018-11-25T23:39:23.672Z,10.67
2018-11-25T23:41:52.058Z,11.50
2018-11-25T23:44:20.469Z,10.67
2018-11-25T23:46:49.054Z,10.57
2018-11-25T23:49:17.539Z,10.77
2018-11-25T23:51:46.012Z,10.90
2018-11-25T23:54:14.391Z,9.80
2018-11-25T23:56:42.986Z,11.47
2018-11-25T23:59:11.448Z,11.40
